Time;durP1;ratioP1;P1;durP2;ratioP2;P2;SDS_P1;SDS_P2;PMS_P1;PMS_P2;Temp;Humidity;BMP_temperature;BMP_pressure;BME280_temperature;BME280_humidity;BME280_pressure;Samples;Min_cycle;Max_cycle;Signal;HPM_P1;HPM_P2
2023/07/25 00:00:44;;;;;;;2.97;2.40;;;;;;;19.13;nan;98485.28;4956721;28;20214;-75
2023/07/25 00:03:10;;;;;;;2.03;1.90;;;;;;;19.08;nan;98474.34;4958094;28;20227;-75
2023/07/25 00:05:36;;;;;;;3.60;2.47;;;;;;;19.05;nan;98477.38;4957832;28;20460;-76
2023/07/25 00:08:02;;;;;;;3.40;2.33;;;;;;;19.00;nan;98471.75;4956329;28;20267;-75
2023/07/25 00:10:27;;;;;;;3.53;2.40;;;;;;;18.95;nan;98468.78;4958866;28;20434;-77
2023/07/25 00:12:54;;;;;;;3.73;3.17;;;;;;;18.94;nan;98467.97;4956134;28;20834;-77
2023/07/25 00:15:21;;;;;;;4.40;2.13;;;;;;;18.96;nan;98465.97;4958190;28;20218;-77
2023/07/25 00:17:46;;;;;;;5.37;2.07;;;;;;;18.98;nan;98468.44;4957366;28;21186;-76
2023/07/25 00:20:12;;;;;;;2.97;2.00;;;;;;;18.99;nan;98467.44;4957310;28;20470;-76
2023/07/25 00:22:37;;;;;;;3.87;2.40;;;;;;;18.98;nan;98465.75;4954680;28;20562;-77
2023/07/25 00:25:03;;;;;;;3.90;2.50;;;;;;;18.95;nan;98466.94;4958084;28;20250;-77
2023/07/25 00:27:28;;;;;;;3.23;2.00;;;;;;;18.93;nan;98476.13;4956739;28;20595;-77
2023/07/25 00:29:54;;;;;;;4.27;2.50;;;;;;;18.90;nan;98476.47;4956916;28;20706;-77
2023/07/25 00:32:19;;;;;;;2.97;2.40;;;;;;;18.89;nan;98474.84;4955675;28;20235;-77
2023/07/25 00:34:44;;;;;;;2.63;2.30;;;;;;;18.87;nan;98477.66;4957697;28;20825;-77
2023/07/25 00:37:10;;;;;;;3.40;2.50;;;;;;;18.87;nan;98479.50;4956313;28;20228;-77
2023/07/25 00:39:35;;;;;;;3.90;2.10;;;;;;;18.83;nan;98484.34;4943954;28;20233;-77
2023/07/25 00:42:01;;;;;;;2.53;2.07;;;;;;;18.79;nan;98480.38;4957145;28;20291;-77
2023/07/25 00:44:26;;;;;;;2.93;2.50;;;;;;;18.73;nan;98471.25;4946188;28;20207;-77
2023/07/25 00:46:51;;;;;;;8.77;2.40;;;;;;;18.71;nan;98475.94;4956935;28;20623;-77
2023/07/25 00:49:17;;;;;;;3.37;2.30;;;;;;;18.74;nan;98472.97;4945859;28;20256;-77
2023/07/25 00:51:42;;;;;;;4.30;2.30;;;;;;;18.76;nan;98460.28;4941816;28;20317;-77
2023/07/25 00:54:08;;;;;;;3.40;2.80;;;;;;;18.78;nan;98463.59;4955349;28;20231;-77
2023/07/25 00:56:33;;;;;;;3.97;2.50;;;;;;;18.80;nan;98468.75;4956196;28;20262;-77
2023/07/25 00:58:59;;;;;;;4.07;2.37;;;;;;;18.82;nan;98469.38;4940108;28;20230;-77
2023/07/25 01:01:27;;;;;;;3.43;2.30;;;;;;;18.82;nan;98463.25;4944536;28;20233;-77
2023/07/25 01:03:55;;;;;;;4.47;2.40;;;;;;;18.82;nan;98452.59;4954987;28;20201;-77
2023/07/25 01:06:20;;;;;;;4.63;2.60;;;;;;;18.81;nan;98453.63;4941907;28;20485;-77
2023/07/25 01:08:54;;;;;;;2.97;2.20;;;;;;;18.75;nan;98442.69;4956207;28;20584;-77
2023/07/25 01:11:21;;;;;;;5.20;2.60;;;;;;;18.67;nan;98432.06;4954454;28;20238;-77
2023/07/25 01:13:47;;;;;;;4.50;2.73;;;;;;;18.65;nan;98438.56;4958027;28;20510;-77
2023/07/25 01:16:16;;;;;;;4.03;1.97;;;;;;;18.64;nan;98424.44;4958394;28;20893;-77
2023/07/25 01:18:42;;;;;;;4.50;3.30;;;;;;;18.63;nan;98425.44;4956183;28;20471;-77
2023/07/25 01:21:08;;;;;;;2.70;2.43;;;;;;;18.61;nan;98427.47;4943390;28;20479;-77
2023/07/25 01:23:36;;;;;;;2.57;2.03;;;;;;;18.61;nan;98429.31;4955569;28;20215;-77
2023/07/25 01:26:01;;;;;;;4.63;2.27;;;;;;;18.58;nan;98441.94;4953300;28;20508;-77
2023/07/25 01:28:27;;;;;;;3.23;1.80;;;;;;;18.54;nan;98432.66;4942635;28;20490;-77
2023/07/25 01:30:52;;;;;;;3.40;2.20;;;;;;;18.48;nan;98424.56;4953228;28;20306;-77
2023/07/25 01:33:18;;;;;;;4.03;1.93;;;;;;;18.43;nan;98418.97;4954839;28;20218;-77
2023/07/25 01:35:43;;;;;;;2.87;1.73;;;;;;;18.40;nan;98433.44;4955157;28;20714;-77
2023/07/25 01:38:08;;;;;;;5.37;2.37;;;;;;;18.37;nan;98430.31;4953892;28;20242;-77
2023/07/25 01:40:34;;;;;;;2.43;1.93;;;;;;;18.31;nan;98429.19;4936805;28;22515;-76
2023/07/25 01:42:59;;;;;;;3.10;2.07;;;;;;;18.22;nan;98423.06;4956173;28;20220;-77
2023/07/25 01:45:25;;;;;;;5.07;2.77;;;;;;;18.11;nan;98416.31;4956413;28;20698;-77
2023/07/25 01:47:50;;;;;;;4.13;2.97;;;;;;;18.07;nan;98419.53;4955942;28;20627;-77
2023/07/25 01:50:16;;;;;;;2.70;1.50;;;;;;;18.04;nan;98414.56;4953543;28;20211;-76
2023/07/25 01:52:42;;;;;;;2.10;1.50;;;;;;;18.05;nan;98417.03;4940813;28;20209;-77
2023/07/25 01:55:08;;;;;;;3.50;2.33;;;;;;;18.07;nan;98408.91;4953452;28;21114;-77
2023/07/25 01:57:33;;;;;;;2.67;2.13;;;;;;;18.06;nan;98413.34;4954781;28;20352;-77
2023/07/25 01:59:59;;;;;;;2.17;1.53;;;;;;;18.09;nan;98412.19;4957926;28;20781;-78
2023/07/25 02:02:25;;;;;;;2.47;1.87;;;;;;;18.10;nan;98403.22;4953459;28;20213;-77
2023/07/25 02:04:50;;;;;;;2.07;1.87;;;;;;;18.10;nan;98405.88;4958229;28;20905;-77
2023/07/25 02:07:15;;;;;;;3.93;2.20;;;;;;;18.09;nan;98396.22;4944017;28;20223;-77
2023/07/25 02:09:41;;;;;;;2.53;1.87;;;;;;;18.08;nan;98397.25;4945194;28;20235;-77
2023/07/25 02:12:08;;;;;;;3.00;2.57;;;;;;;18.05;nan;98405.56;4959483;28;20243;-77
2023/07/25 02:14:33;;;;;;;3.07;1.90;;;;;;;18.05;nan;98394.94;4962345;28;20220;-77
2023/07/25 02:16:58;;;;;;;3.57;2.17;;;;;;;18.05;nan;98389.63;4962486;28;20457;-77
2023/07/25 02:19:24;;;;;;;4.67;2.10;;;;;;;18.04;nan;98382.69;4946241;28;20721;-77
2023/07/25 02:21:50;;;;;;;4.47;1.87;;;;;;;18.04;nan;98372.88;4960320;28;20217;-77
2023/07/25 02:24:15;;;;;;;2.57;2.30;;;;;;;18.04;nan;98372.03;4960250;28;20209;-77
2023/07/25 02:26:40;;;;;;;2.63;1.93;;;;;;;18.05;nan;98368.38;4944840;28;20213;-77
2023/07/25 02:29:06;;;;;;;1.70;1.60;;;;;;;17.99;nan;98364.59;4958397;28;20569;-77
2023/07/25 02:31:31;;;;;;;1.50;1.30;;;;;;;17.90;nan;98360.31;4960147;28;20255;-77
2023/07/25 02:33:57;;;;;;;2.70;1.63;;;;;;;17.83;nan;98360.19;4957489;28;20562;-77
2023/07/25 02:36:22;;;;;;;2.23;1.70;;;;;;;17.80;nan;98355.25;4945028;28;20199;-77
2023/07/25 02:38:47;;;;;;;2.83;1.80;;;;;;;17.79;nan;98364.19;4959351;28;20761;-77
2023/07/25 02:41:15;;;;;;;4.00;2.03;;;;;;;17.81;nan;98370.16;4943043;28;20552;-77
2023/07/25 02:43:40;;;;;;;1.70;1.60;;;;;;;17.78;nan;98373.13;4957994;28;20520;-77
2023/07/25 02:46:06;;;;;;;3.50;2.17;;;;;;;17.73;nan;98366.69;4945362;28;20770;-77
2023/07/25 02:48:31;;;;;;;2.27;1.90;;;;;;;17.69;nan;98379.50;4958660;28;20885;-77
2023/07/25 02:50:57;;;;;;;3.67;1.97;;;;;;;17.56;nan;98397.81;4943887;28;20569;-76
2023/07/25 02:53:22;;;;;;;1.77;1.37;;;;;;;17.40;nan;98393.38;4959234;28;20285;-77
2023/07/25 02:55:48;;;;;;;1.60;1.20;;;;;;;17.29;nan;98399.88;4943206;28;20682;-76
2023/07/25 02:58:13;;;;;;;2.43;2.07;;;;;;;17.23;nan;98382.00;4942295;28;20281;-76
2023/07/25 03:00:39;;;;;;;2.60;1.97;;;;;;;17.18;nan;98387.81;4942582;28;20215;-77
2023/07/25 03:03:04;;;;;;;2.40;1.50;;;;;;;17.14;nan;98386.47;4957453;28;20327;-76
2023/07/25 03:05:29;;;;;;;2.13;1.80;;;;;;;17.15;nan;98397.94;4959158;28;20211;-76
2023/07/25 03:07:58;;;;;;;3.47;1.80;;;;;;;17.16;nan;98389.78;4958396;28;20216;-77
2023/07/25 03:10:23;;;;;;;4.97;2.37;;;;;;;17.19;nan;98388.63;4957602;28;20407;-77
2023/07/25 03:12:49;;;;;;;4.87;2.10;;;;;;;17.24;nan;98383.63;4957838;28;20604;-77
2023/07/25 03:15:14;;;;;;;3.17;2.43;;;;;;;17.30;nan;98376.81;4957945;28;20314;-77
2023/07/25 03:17:40;;;;;;;4.40;2.60;;;;;;;17.33;nan;98384.44;4942641;28;20267;-77
2023/07/25 03:20:06;;;;;;;3.30;2.20;;;;;;;17.34;nan;98380.81;4958230;28;20697;-77
2023/07/25 03:22:32;;;;;;;5.17;3.10;;;;;;;17.32;nan;98373.00;4957207;28;20216;-77
2023/07/25 03:24:57;;;;;;;3.73;2.37;;;;;;;17.28;nan;98374.31;4958772;28;20470;-77
2023/07/25 03:27:25;;;;;;;4.90;2.97;;;;;;;17.23;nan;98369.53;4941935;28;20272;-77
2023/07/25 03:29:50;;;;;;;3.97;2.73;;;;;;;17.23;nan;98366.91;4943024;28;20967;-77
2023/07/25 03:32:16;;;;;;;2.90;2.10;;;;;;;17.24;nan;98359.75;4957288;28;20471;-76
2023/07/25 03:34:41;;;;;;;4.13;2.85;;;;;;;17.30;nan;98363.56;4954921;28;20466;-77
2023/07/25 03:37:07;;;;;;;5.70;2.73;;;;;;;17.36;nan;98355.75;4952758;28;20790;-77
2023/07/25 03:39:32;;;;;;;4.80;2.37;;;;;;;17.39;nan;98363.38;4953261;28;20235;-77
2023/07/25 03:41:58;;;;;;;3.20;2.20;;;;;;;17.44;nan;98379.59;4950275;28;20314;-77
2023/07/25 03:44:23;;;;;;;3.83;2.80;;;;;;;17.50;nan;98401.97;4952607;28;20296;-77
2023/07/25 03:46:48;;;;;;;3.10;2.80;;;;;;;17.48;nan;98399.50;4950184;28;20223;-77
2023/07/25 03:49:14;;;;;;;2.63;2.03;;;;;;;17.46;nan;98408.63;4955066;28;20219;-77
2023/07/25 03:51:39;;;;;;;4.20;2.40;;;;;;;17.46;nan;98413.94;4955076;28;20308;-77
2023/07/25 03:54:08;;;;;;;4.30;2.83;;;;;;;17.44;nan;98416.78;4939064;28;20231;-77
2023/07/25 03:56:33;;;;;;;3.60;2.70;;;;;;;17.38;nan;98408.66;4958238;28;20270;-77
2023/07/25 03:58:59;;;;;;;3.93;2.73;;;;;;;17.34;nan;98402.84;4956016;28;21024;-77
2023/07/25 04:01:25;;;;;;;4.70;3.07;;;;;;;17.37;nan;98402.50;4957750;28;20219;-77
2023/07/25 04:03:51;;;;;;;3.33;2.50;;;;;;;17.42;nan;98405.47;4953774;28;20467;-77
2023/07/25 04:06:17;;;;;;;4.00;2.90;;;;;;;17.48;nan;98402.13;4957928;28;20536;-77
2023/07/25 04:08:43;;;;;;;3.53;2.67;;;;;;;17.52;nan;98415.88;4943067;28;20480;-77
2023/07/25 04:11:08;;;;;;;3.47;2.80;;;;;;;17.53;nan;98417.56;4958540;28;20457;-77
2023/07/25 04:13:34;;;;;;;5.87;3.67;;;;;;;17.57;nan;98420.69;4956822;28;20215;-77
2023/07/25 04:15:59;;;;;;;4.27;2.63;;;;;;;17.61;nan;98437.97;4958413;28;20299;-77
2023/07/25 04:18:25;;;;;;;4.27;3.20;;;;;;;17.62;nan;98437.75;4956657;28;20548;-77
2023/07/25 04:20:50;;;;;;;5.10;3.37;;;;;;;17.63;nan;98444.75;4957918;28;20212;-75
2023/07/25 04:23:15;;;;;;;3.83;3.10;;;;;;;17.62;nan;98434.28;4957200;28;20658;-77
2023/07/25 04:25:41;;;;;;;3.90;2.70;;;;;;;17.65;nan;98437.41;4939438;28;20212;-77
2023/07/25 04:28:07;;;;;;;3.90;3.00;;;;;;;17.69;nan;98446.72;4955896;28;20352;-77
2023/07/25 04:30:33;;;;;;;3.17;2.40;;;;;;;17.73;nan;98439.22;4958112;28;20231;-77
2023/07/25 04:32:58;;;;;;;3.37;2.53;;;;;;;17.76;nan;98438.06;4956874;28;20479;-77
2023/07/25 04:35:23;;;;;;;7.13;3.60;;;;;;;17.78;nan;98447.50;4957346;28;20445;-77
2023/07/25 04:37:49;;;;;;;3.53;2.10;;;;;;;17.80;nan;98444.72;4957604;28;20305;-77
2023/07/25 04:40:15;;;;;;;7.20;3.50;;;;;;;17.83;nan;98455.81;4955965;28;20251;-77
2023/07/25 04:42:40;;;;;;;2.70;2.50;;;;;;;17.87;nan;98450.97;4956085;28;20433;-77
2023/07/25 04:45:06;;;;;;;3.90;2.80;;;;;;;17.92;nan;98448.63;4941685;28;20216;-77
2023/07/25 04:47:32;;;;;;;8.67;2.90;;;;;;;17.98;nan;98463.06;4940102;28;20235;-77
2023/07/25 04:49:57;;;;;;;3.20;2.57;;;;;;;18.05;nan;98454.22;4939819;28;20489;-77
2023/07/25 04:52:23;;;;;;;6.00;3.20;;;;;;;18.13;nan;98450.69;4953946;28;20271;-77
2023/07/25 04:54:49;;;;;;;3.37;2.57;;;;;;;18.27;nan;98457.09;4940236;28;20217;-77
2023/07/25 04:57:16;;;;;;;5.87;2.90;;;;;;;18.45;nan;98455.00;4951886;28;20210;-75
2023/07/25 04:59:41;;;;;;;5.30;2.77;;;;;;;18.73;nan;98449.97;4956599;28;20475;-77
2023/07/25 05:02:06;;;;;;;4.30;2.70;;;;;;;18.94;nan;98437.88;4957493;28;20494;-77
2023/07/25 05:04:32;;;;;;;3.30;2.70;;;;;;;19.23;nan;98445.09;4955446;28;20792;-77
2023/07/25 05:06:57;;;;;;;4.90;3.27;;;;;;;19.56;nan;98448.25;4956466;28;20225;-77
2023/07/25 05:09:23;;;;;;;3.30;2.43;;;;;;;19.88;nan;98448.91;4955214;28;20441;-77
2023/07/25 05:11:51;;;;;;;5.43;4.60;;;;;;;20.24;nan;98443.59;4955350;28;20223;-77
2023/07/25 05:14:17;;;;;;;6.90;2.33;;;;;;;20.58;nan;98444.81;4956627;28;20302;-76
2023/07/25 05:16:42;;;;;;;2.33;2.13;;;;;;;20.62;nan;98439.91;4956033;28;20478;-76
2023/07/25 05:19:07;;;;;;;4.53;2.57;;;;;;;20.51;nan;98446.53;4956938;28;20562;-76
2023/07/25 05:21:33;;;;;;;7.10;2.40;;;;;;;20.33;nan;98429.16;4957358;28;20215;-76
2023/07/25 05:23:58;;;;;;;2.93;2.33;;;;;;;20.11;nan;98441.59;4951694;28;20727;-77
2023/07/25 05:26:24;;;;;;;3.20;2.67;;;;;;;19.93;nan;98457.19;4954790;28;20219;-77
2023/07/25 05:28:49;;;;;;;3.50;2.50;;;;;;;19.70;nan;98459.13;4953747;28;20219;-77
2023/07/25 05:31:15;;;;;;;8.13;3.67;;;;;;;19.44;nan;98461.19;4956551;28;20687;-76
2023/07/25 05:33:40;;;;;;;9.30;5.97;;;;;;;19.28;nan;98463.16;4954569;28;20224;-76
2023/07/25 05:36:05;;;;;;;8.18;4.35;;;;;;;19.21;nan;98455.91;4956572;28;20475;-76
2023/07/25 05:38:31;;;;;;;4.77;3.70;;;;;;;19.12;nan;98465.00;4956623;28;20225;-76
2023/07/25 05:40:56;;;;;;;4.70;3.57;;;;;;;19.05;nan;98464.06;4956641;28;20872;-76
2023/07/25 05:43:22;;;;;;;4.00;3.23;;;;;;;18.97;nan;98470.28;4956219;28;20264;-76
2023/07/25 05:45:48;;;;;;;2.50;2.30;;;;;;;18.93;nan;98466.31;4957094;28;20341;-76
2023/07/25 05:48:13;;;;;;;5.63;3.13;;;;;;;18.91;nan;98462.19;4957409;28;20243;-76
2023/07/25 05:50:38;;;;;;;3.67;1.97;;;;;;;18.88;nan;98458.06;4955991;28;20226;-76
2023/07/25 05:53:04;;;;;;;7.40;3.60;;;;;;;18.88;nan;98459.88;4952908;28;20231;-76
2023/07/25 05:55:30;;;;;;;3.70;2.80;;;;;;;18.87;nan;98459.03;4953671;28;20324;-76
2023/07/25 05:57:55;;;;;;;2.67;2.40;;;;;;;18.89;nan;98458.88;4953053;28;20624;-76
2023/07/25 06:00:22;;;;;;;2.87;2.57;;;;;;;18.91;nan;98455.03;4953274;28;20229;-76
2023/07/25 06:02:48;;;;;;;6.50;2.77;;;;;;;18.92;nan;98454.00;4954466;28;20476;-76
2023/07/25 06:05:13;;;;;;;3.70;2.50;;;;;;;18.96;nan;98441.19;4955696;28;20691;-76
2023/07/25 06:07:39;;;;;;;4.83;2.10;;;;;;;19.00;nan;98443.28;4957530;28;20626;-77
2023/07/25 06:10:05;;;;;;;4.53;2.60;;;;;;;19.08;nan;98455.72;4956131;28;20239;-76
2023/07/25 06:12:31;;;;;;;3.97;2.70;;;;;;;19.16;nan;98460.94;4954944;28;20202;-76
2023/07/25 06:14:56;;;;;;;2.97;2.37;;;;;;;19.23;nan;98464.56;4955518;28;21071;-76
2023/07/25 06:17:22;;;;;;;2.60;2.40;;;;;;;19.29;nan;98456.84;4955149;28;20219;-76
2023/07/25 06:19:47;;;;;;;4.17;2.50;;;;;;;19.32;nan;98452.00;4955572;28;20272;-76
2023/07/25 06:22:12;;;;;;;4.47;3.10;;;;;;;19.38;nan;98445.09;4956526;28;20217;-76
2023/07/25 06:24:38;;;;;;;2.30;2.10;;;;;;;19.45;nan;98446.03;4954526;28;20208;-77
2023/07/25 06:29:54;;;;;;;3.20;2.30;;;;;;;19.52;nan;98451.44;4969781;28;20254;-76
2023/07/25 06:32:19;;;;;;;3.30;2.30;;;;;;;19.56;nan;98445.56;4968578;28;20845;-75
2023/07/25 06:34:45;;;;;;;4.10;2.47;;;;;;;19.57;nan;98443.72;4967025;28;20213;-76
2023/07/25 06:37:10;;;;;;;3.17;2.30;;;;;;;19.54;nan;98439.59;4969652;28;20224;-75
2023/07/25 06:39:35;;;;;;;3.30;2.30;;;;;;;19.54;nan;98438.78;4969931;28;20216;-75
2023/07/25 06:42:01;;;;;;;3.30;2.43;;;;;;;19.55;nan;98435.09;4969802;28;20303;-76
2023/07/25 06:44:27;;;;;;;6.67;3.20;;;;;;;19.64;nan;98429.50;4982358;28;20201;-76
2023/07/25 06:46:53;;;;;;;3.90;2.40;;;;;;;19.88;nan;98436.41;4968083;28;20466;-76
2023/07/25 06:49:18;;;;;;;2.90;2.17;;;;;;;20.24;nan;98437.44;4969860;28;20486;-76
2023/07/25 06:51:44;;;;;;;3.57;2.80;;;;;;;20.58;nan;98441.28;4968246;28;20679;-76
2023/07/25 06:54:12;;;;;;;3.40;2.67;;;;;;;20.74;nan;98430.38;4970769;28;20241;-83
2023/07/25 06:56:58;;;;;;;2.80;2.43;;;;;;;20.95;nan;98429.53;5469823;22;20244;-75
2023/07/25 06:59:24;;;;;;;9.57;2.70;;;;;;;21.16;nan;98436.66;4978097;28;20471;-75
2023/07/25 07:01:49;;;;;;;3.80;2.33;;;;;;;21.43;nan;98435.03;4981141;28;20226;-74
2023/07/25 07:04:15;;;;;;;3.23;1.90;;;;;;;22.05;nan;98427.94;4978050;28;20467;-75
2023/07/25 07:06:40;;;;;;;3.53;3.00;;;;;;;22.79;nan;98423.59;4977793;28;20450;-75
2023/07/25 07:09:06;;;;;;;3.20;1.80;;;;;;;23.53;nan;98411.81;4982401;28;20551;-76
2023/07/25 07:11:31;;;;;;;5.43;2.30;;;;;;;23.99;nan;98410.88;4980844;28;20221;-76
2023/07/25 07:13:56;;;;;;;4.10;3.00;;;;;;;24.00;nan;98416.00;4959736;28;20772;-75
2023/07/25 07:16:22;;;;;;;5.50;2.97;;;;;;;23.89;nan;98411.31;4978870;28;20207;-76
2023/07/25 07:18:48;;;;;;;11.50;3.37;;;;;;;23.70;nan;98414.84;4977772;28;20245;-75
2023/07/25 07:21:14;;;;;;;4.53;2.27;;;;;;;23.80;nan;98409.91;4979338;28;20748;-76
2023/07/25 07:23:39;;;;;;;3.80;2.13;;;;;;;24.07;nan;98400.69;4979409;28;20476;-76
2023/07/25 07:26:04;;;;;;;2.43;1.77;;;;;;;24.26;nan;98400.81;4977733;28;20356;-76
2023/07/25 07:28:30;;;;;;;2.77;2.00;;;;;;;24.62;nan;98391.31;4977393;28;20243;-76
2023/07/25 07:30:55;;;;;;;3.57;2.20;;;;;;;24.98;nan;98396.00;4976216;28;20363;-75
2023/07/25 07:33:21;;;;;;;4.50;1.80;;;;;;;25.48;nan;98400.50;4976608;28;20324;-75
2023/07/25 07:35:46;;;;;;;2.23;1.80;;;;;;;25.98;nan;98394.97;4977990;28;20200;-74
2023/07/25 07:38:12;;;;;;;3.70;1.90;;;;;;;26.40;nan;98389.63;4979995;28;20689;-74
2023/07/25 07:40:37;;;;;;;3.03;2.10;;;;;;;26.77;nan;98389.50;4977312;28;20577;-76
2023/07/25 07:43:03;;;;;;;3.70;2.57;;;;;;;27.03;nan;98386.38;4979826;28;20211;-75
2023/07/25 07:45:30;;;;;;;4.33;2.70;;;;;;;27.17;nan;98389.69;4979081;28;20728;-76
2023/07/25 07:47:56;;;;;;;1.93;1.40;;;;;;;27.17;nan;98386.16;4977813;28;20212;-75
2023/07/25 07:50:21;;;;;;;5.50;3.70;;;;;;;27.14;nan;98387.44;4980567;28;20471;-75
2023/07/25 07:52:48;;;;;;;3.13;2.30;;;;;;;27.24;nan;98392.25;4978331;28;20760;-75
2023/07/25 07:55:14;;;;;;;3.27;2.03;;;;;;;27.33;nan;98390.84;4961658;28;20228;-75
2023/07/25 07:57:41;;;;;;;4.47;2.70;;;;;;;27.35;nan;98391.41;4979966;28;21226;-75
2023/07/25 08:00:08;;;;;;;3.50;2.10;;;;;;;27.49;nan;98395.53;4979117;28;20831;-76
2023/07/25 08:02:37;;;;;;;3.93;2.77;;;;;;;27.49;nan;98389.28;4980140;28;20435;-76
2023/07/25 08:05:03;;;;;;;3.80;2.63;;;;;;;27.43;nan;98396.44;4976761;28;20496;-76
2023/07/25 08:07:29;;;;;;;2.40;1.87;;;;;;;27.61;nan;98378.50;4975695;28;20282;-76
2023/07/25 08:09:55;;;;;;;2.23;1.70;;;;;;;27.49;nan;98382.03;4977964;28;20470;-76
2023/07/25 08:12:21;;;;;;;3.77;2.60;;;;;;;27.10;nan;98387.06;4976888;28;20497;-76
2023/07/25 08:14:46;;;;;;;5.23;2.10;;;;;;;26.69;nan;98388.78;4975893;28;20481;-75
2023/07/25 08:17:13;;;;;;;6.10;1.77;;;;;;;26.23;nan;98390.28;4979909;28;20518;-76
2023/07/25 08:19:38;;;;;;;1.60;1.50;;;;;;;25.67;nan;98395.94;4978272;28;20311;-76
2023/07/25 08:22:04;;;;;;;4.73;1.97;;;;;;;25.08;nan;98400.84;4982623;28;20468;-75
2023/07/25 08:24:29;;;;;;;6.67;3.30;;;;;;;24.65;nan;98399.75;4978673;28;20574;-75
2023/07/25 08:26:55;;;;;;;4.03;2.50;;;;;;;24.34;nan;98400.56;4977451;28;20479;-75
2023/07/25 08:29:20;;;;;;;4.37;1.90;;;;;;;24.11;nan;98402.94;4978141;28;20243;-76
2023/07/25 08:31:46;;;;;;;3.87;2.30;;;;;;;23.92;nan;98405.50;4976510;28;20228;-75
2023/07/25 08:34:11;;;;;;;1.80;1.47;;;;;;;23.77;nan;98399.63;4976649;28;20213;-76
2023/07/25 08:36:37;;;;;;;3.85;1.70;;;;;;;23.67;nan;98393.84;4978330;28;20882;-76
2023/07/25 08:39:02;;;;;;;6.80;1.70;;;;;;;23.60;nan;98397.38;4979931;28;20225;-76
2023/07/25 08:41:33;;;;;;;4.30;1.90;;;;;;;23.67;nan;98404.56;4976059;28;20205;-75
2023/07/25 08:44:00;;;;;;;3.43;1.47;;;;;;;23.78;nan;98402.06;4976814;28;20229;-76
2023/07/25 08:46:28;;;;;;;1.80;1.33;;;;;;;24.13;nan;98392.84;4976654;28;21010;-75
2023/07/25 08:49:00;;;;;;;2.53;1.73;;;;;;;24.65;nan;98388.19;4977697;28;20484;-75
2023/07/25 08:51:27;;;;;;;1.73;1.60;;;;;;;24.98;nan;98387.94;4977116;28;20850;-76
2023/07/25 08:54:16;;;;;;;3.13;1.73;;;;;;;24.99;nan;98402.19;4978440;28;20484;-76
2023/07/25 08:56:42;;;;;;;3.10;1.60;;;;;;;25.08;nan;98404.34;4975171;28;20472;-75
2023/07/25 08:59:09;;;;;;;4.23;1.03;;;;;;;25.17;nan;98395.00;4977723;28;20965;-76
2023/07/25 09:01:34;;;;;;;3.93;1.50;;;;;;;25.14;nan;98399.97;4977520;28;20217;-77
2023/07/25 09:04:01;;;;;;;1.60;1.13;;;;;;;25.01;nan;98402.78;4978935;28;21121;-77
2023/07/25 09:06:27;;;;;;;1.50;1.10;;;;;;;24.82;nan;98401.91;4975063;28;20440;-77
2023/07/25 09:08:53;;;;;;;2.00;1.13;;;;;;;24.60;nan;98402.28;4975008;28;20469;-77
2023/07/25 09:11:20;;;;;;;2.03;1.27;;;;;;;24.41;nan;98403.19;4976823;28;20477;-77
2023/07/25 09:13:47;;;;;;;1.00;0.90;;;;;;;24.31;nan;98405.53;4975872;28;20364;-77
2023/07/25 09:16:13;;;;;;;2.00;1.30;;;;;;;24.31;nan;98398.31;4974242;28;20521;-77
2023/07/25 09:18:38;;;;;;;2.17;1.23;;;;;;;24.51;nan;98404.38;4977382;28;21576;-77
2023/07/25 09:21:04;;;;;;;3.73;1.20;;;;;;;24.82;nan;98399.25;4971383;28;20213;-77
2023/07/25 09:23:30;;;;;;;3.00;1.43;;;;;;;25.05;nan;98390.56;4976532;28;20794;-76
2023/07/25 09:26:08;;;;;;;2.13;1.10;;;;;;;25.38;nan;98399.16;4976068;28;20996;-79
2023/07/25 09:28:34;;;;;;;1.53;1.10;;;;;;;25.60;nan;98396.03;4975428;28;20215;-77
2023/07/25 09:31:05;;;;;;;1.57;1.47;;;;;;;25.72;nan;98407.66;4974392;28;21141;-76
2023/07/25 09:33:31;;;;;;;2.70;1.17;;;;;;;25.77;nan;98394.38;4975440;28;20250;-77
2023/07/25 09:35:58;;;;;;;1.20;1.10;;;;;;;25.70;nan;98398.16;4975077;28;20570;-76
2023/07/25 09:38:23;;;;;;;3.03;1.17;;;;;;;25.56;nan;98409.06;4974535;28;20211;-77
2023/07/25 09:40:49;;;;;;;2.40;1.03;;;;;;;25.47;nan;98409.63;4975288;28;20521;-77
2023/07/25 09:43:25;;;;;;;2.30;1.10;;;;;;;25.35;nan;98415.69;4975106;28;20208;-77
2023/07/25 09:45:54;;;;;;;1.60;1.37;;;;;;;25.24;nan;98413.75;4973692;28;20295;-77
2023/07/25 09:48:20;;;;;;;1.70;1.40;;;;;;;25.31;nan;98416.38;4974753;28;21041;-77
2023/07/25 09:50:46;;;;;;;3.53;1.37;;;;;;;25.37;nan;98415.50;4977590;28;20605;-76
2023/07/25 09:53:13;;;;;;;1.17;1.07;;;;;;;25.41;nan;98410.47;4973415;28;20564;-76
2023/07/25 09:55:39;;;;;;;2.03;1.30;;;;;;;25.44;nan;98410.03;4973160;28;20479;-77
2023/07/25 09:58:05;;;;;;;1.37;1.10;;;;;;;25.57;nan;98417.97;4975321;28;20479;-77
2023/07/25 10:00:31;;;;;;;2.67;1.40;;;;;;;25.67;nan;98406.69;4975295;28;20486;-77
2023/07/25 10:02:57;;;;;;;1.20;1.10;;;;;;;25.72;nan;98396.91;4976287;28;20212;-77
2023/07/25 10:05:23;;;;;;;1.80;1.20;;;;;;;25.82;nan;98396.38;4974718;28;20512;-77
2023/07/25 10:07:49;;;;;;;1.10;1.00;;;;;;;26.02;nan;98402.34;4973422;28;21022;-77
2023/07/25 10:10:17;;;;;;;2.03;1.43;;;;;;;26.40;nan;98398.53;4974573;28;20219;-77
2023/07/25 10:12:42;;;;;;;2.40;1.73;;;;;;;26.76;nan;98401.31;4975778;28;21018;-77
2023/07/25 10:15:11;;;;;;;1.67;1.17;;;;;;;26.98;nan;98404.28;4973643;28;20478;-77
2023/07/25 10:17:36;;;;;;;1.63;1.20;;;;;;;27.06;nan;98402.06;4973191;28;20578;-77
2023/07/25 10:20:05;;;;;;;2.63;1.10;;;;;;;27.15;nan;98407.94;4974121;28;20634;-77
2023/07/25 10:22:42;;;;;;;1.67;1.57;;;;;;;27.19;nan;98403.72;4970796;28;20204;-77
2023/07/25 10:25:16;;;;;;;2.80;1.30;;;;;;;27.27;nan;98407.94;4977152;28;20487;-77
2023/07/25 10:27:42;;;;;;;1.53;1.17;;;;;;;27.32;nan;98400.78;4979834;28;20748;-77
2023/07/25 10:30:52;;;;;;;3.53;1.50;;;;;;;27.47;nan;98407.59;4977557;28;20466;-77
2023/07/25 10:33:18;;;;;;;2.47;1.30;;;;;;;27.52;nan;98403.13;4977406;28;20334;-77
2023/07/25 10:35:50;;;;;;;2.10;1.90;;;;;;;27.54;nan;98398.34;4978694;28;20959;-77
2023/07/25 10:38:22;;;;;;;3.70;1.20;;;;;;;27.38;nan;98399.03;4980005;28;20551;-75
2023/07/25 10:40:56;;;;;;;3.70;1.87;;;;;;;27.27;nan;98392.59;4978365;28;20560;-75
2023/07/25 10:43:26;;;;;;;4.93;1.40;;;;;;;27.14;nan;98392.81;4980675;28;20997;-75
2023/07/25 10:45:53;;;;;;;1.20;1.10;;;;;;;27.14;nan;98384.75;4977273;28;20458;-75
2023/07/25 10:48:33;;;;;;;4.60;1.50;;;;;;;27.09;nan;98393.53;4975097;28;20481;-75
2023/07/25 10:51:00;;;;;;;1.63;1.10;;;;;;;27.10;nan;98381.66;4974694;28;20454;-75
2023/07/25 10:53:26;;;;;;;2.07;1.33;;;;;;;27.09;nan;98388.13;4974845;28;20459;-75
2023/07/25 10:56:03;;;;;;;1.20;1.10;;;;;;;27.15;nan;98387.19;4976555;28;20771;-75
2023/07/25 10:58:39;;;;;;;1.33;1.00;;;;;;;27.30;nan;98380.50;4974309;28;20226;-75
2023/07/25 11:01:06;;;;;;;1.20;0.97;;;;;;;27.33;nan;98390.84;4978007;28;20459;-75
2023/07/25 11:03:33;;;;;;;1.33;1.23;;;;;;;27.27;nan;98381.81;4976003;28;20454;-76
2023/07/25 11:06:07;;;;;;;1.83;1.30;;;;;;;27.17;nan;98387.00;4978017;28;20480;-75
2023/07/25 11:08:40;;;;;;;1.90;1.00;;;;;;;27.15;nan;98378.28;4959778;28;20470;-75
2023/07/25 11:11:08;;;;;;;1.70;1.20;;;;;;;27.23;nan;98379.84;4978260;28;20495;-75
2023/07/25 11:13:36;;;;;;;3.67;1.63;;;;;;;27.23;nan;98364.47;4973734;28;20458;-75
2023/07/25 11:16:06;;;;;;;1.63;1.23;;;;;;;27.21;nan;98368.47;4975977;28;20464;-75
2023/07/25 11:18:38;;;;;;;1.33;1.10;;;;;;;27.26;nan;98380.19;4975056;28;20507;-75
2023/07/25 11:21:07;;;;;;;1.83;1.20;;;;;;;27.27;nan;98389.88;4979038;28;20555;-75
2023/07/25 11:23:34;;;;;;;1.60;1.17;;;;;;;27.25;nan;98386.63;4972441;28;20546;-75
2023/07/25 11:26:02;;;;;;;1.50;1.13;;;;;;;27.16;nan;98382.59;4974473;28;20482;-75
2023/07/25 11:28:28;;;;;;;1.40;1.27;;;;;;;27.03;nan;98381.00;4976907;28;20619;-75
2023/07/25 11:30:55;;;;;;;2.00;1.30;;;;;;;26.95;nan;98384.03;4973577;28;20836;-75
2023/07/25 11:33:22;;;;;;;1.77;1.67;;;;;;;26.92;nan;98381.78;4973098;28;20471;-75
2023/07/25 11:35:54;;;;;;;2.40;1.50;;;;;;;26.84;nan;98392.91;4974983;28;20476;-75
2023/07/25 11:38:20;;;;;;;1.63;0.97;;;;;;;26.75;nan;98399.69;4975090;28;20339;-75
2023/07/25 11:40:54;;;;;;;2.70;1.40;;;;;;;26.52;nan;98395.91;4971807;28;20559;-75
2023/07/25 11:43:20;;;;;;;2.07;1.43;;;;;;;26.26;nan;98400.59;4976466;28;20365;-75
2023/07/25 11:45:46;;;;;;;1.20;1.10;;;;;;;25.99;nan;98407.38;4972855;28;20502;-75
2023/07/25 11:48:14;;;;;;;1.70;1.60;;;;;;;25.61;nan;98417.31;4973661;28;20554;-74
2023/07/25 11:50:48;;;;;;;5.90;1.00;;;;;;;25.27;nan;98410.63;4974408;28;20808;-75